Time;durP1;ratioP1;P1;durP2;ratioP2;P2;SDS_P1;SDS_P2;PMS_P1;PMS_P2;Temp;Humidity;BMP_temperature;BMP_pressure;BME280_temperature;BME280_humidity;BME280_pressure;Samples;Min_cycle;Max_cycle;Signal;HPM_P1;HPM_P2
2024/04/11 00:00:01;;;;;;;0.30;0.20;;;;;;;6.90;90.02;101796.38;5455173;26;20576;-47
2024/04/11 00:02:29;;;;;;;0.30;0.20;;;;;;;6.77;89.43;101800.66;5455048;26;21053;-47
2024/04/11 00:04:56;;;;;;;0.30;0.20;;;;;;;6.91;89.80;101797.28;5455239;26;20474;-47
2024/04/11 00:07:23;;;;;;;0.30;0.20;;;;;;;6.79;89.50;101800.66;5455037;26;21089;-47
2024/04/11 00:09:49;;;;;;;0.30;0.20;;;;;;;6.61;90.03;101801.34;5455061;26;20509;-47
2024/04/11 00:12:16;;;;;;;0.30;0.20;;;;;;;6.45;91.38;101791.47;5442897;26;20475;-47
2024/04/11 00:14:44;;;;;;;0.30;0.20;;;;;;;6.61;90.90;101787.25;5443318;26;20473;-47
2024/04/11 00:17:12;;;;;;;0.30;0.20;;;;;;;6.39;90.79;101794.00;5466045;26;21014;-47
2024/04/11 00:19:39;;;;;;;0.30;0.20;;;;;;;6.28;91.61;101791.22;5465705;26;20530;-47
2024/04/11 00:22:08;;;;;;;0.30;0.20;;;;;;;6.24;92.13;101779.75;5455235;26;20465;-47
2024/04/11 00:24:35;;;;;;;0.30;0.20;;;;;;;6.20;91.22;101775.31;5454909;26;20473;-48
2024/04/11 00:27:02;;;;;;;0.30;0.20;;;;;;;6.15;91.59;101770.81;5455107;26;20603;-47
2024/04/11 00:29:29;;;;;;;0.30;0.20;;;;;;;6.11;92.38;101783.09;5455031;26;21009;-47
2024/04/11 00:31:55;;;;;;;0.30;0.20;;;;;;;6.04;93.17;101781.25;5455000;26;20558;-47
2024/04/11 00:34:23;;;;;;;0.30;0.20;;;;;;;6.13;92.56;101778.72;5454913;26;20526;-47
2024/04/11 00:36:50;;;;;;;0.30;0.20;;;;;;;6.14;91.95;101779.59;5454798;26;20537;-47
2024/04/11 00:39:23;;;;;;;0.30;0.20;;;;;;;6.04;92.77;101770.69;5454568;26;21017;-47
2024/04/11 00:41:52;;;;;;;0.30;0.20;;;;;;;6.08;92.60;101771.59;5454803;26;20470;-47
2024/04/11 00:44:19;;;;;;;0.30;0.20;;;;;;;6.02;92.07;101771.50;5430650;26;20859;-47
2024/04/11 00:46:46;;;;;;;0.30;0.20;;;;;;;5.89;92.27;101778.31;5437147;26;21064;-47
2024/04/11 00:49:15;;;;;;;0.30;0.20;;;;;;;6.03;92.73;101768.00;5451704;26;20469;-47
2024/04/11 00:51:42;;;;;;;0.30;0.20;;;;;;;6.17;92.21;101761.19;5454760;26;20582;-47
2024/04/11 00:54:10;;;;;;;0.30;0.20;;;;;;;6.12;92.31;101766.38;5430120;26;20528;-47
2024/04/11 00:56:37;;;;;;;0.30;0.20;;;;;;;5.89;91.83;101767.75;5454957;26;20530;-47
2024/04/11 00:59:04;;;;;;;0.30;0.20;;;;;;;5.88;92.69;101766.88;5455014;26;20595;-47
2024/04/11 01:01:31;;;;;;;0.30;0.20;;;;;;;5.93;92.49;101777.56;5452988;26;20466;-46
2024/04/11 01:04:00;;;;;;;0.30;0.20;;;;;;;5.89;92.82;101776.59;5454619;26;20516;-47
2024/04/11 01:06:42;;;;;;;0.30;0.20;;;;;;;6.04;92.61;101768.06;5454431;26;20474;-47
2024/04/11 01:09:19;;;;;;;0.30;0.20;;;;;;;5.84;91.54;101773.00;5454357;26;20526;-47
2024/04/11 01:11:45;;;;;;;0.30;0.20;;;;;;;5.76;92.97;101773.75;5449259;26;21040;-47
2024/04/11 01:14:14;;;;;;;0.30;0.20;;;;;;;5.74;92.97;101778.09;5435347;26;20526;-47
2024/04/11 01:16:41;;;;;;;0.30;0.20;;;;;;;5.64;92.73;101772.72;5457771;26;20599;-47
2024/04/11 01:19:07;;;;;;;0.30;0.20;;;;;;;5.62;93.47;101771.81;5473112;26;20474;-47
2024/04/11 01:21:34;;;;;;;0.30;0.20;;;;;;;5.56;93.19;101771.69;5454046;26;20526;-47
2024/04/11 01:24:03;;;;;;;0.30;0.20;;;;;;;5.67;93.10;101777.13;5454448;26;21033;-47
2024/04/11 01:26:30;;;;;;;0.30;0.20;;;;;;;5.75;92.72;101778.13;5454369;26;20474;-48
2024/04/11 01:28:57;;;;;;;0.30;0.20;;;;;;;5.64;92.03;101780.63;5454360;26;20530;-47
2024/04/11 01:31:23;;;;;;;0.30;0.20;;;;;;;5.52;91.58;101779.53;5454159;26;20466;-48
2024/04/11 01:33:50;;;;;;;0.30;0.20;;;;;;;5.43;93.10;101769.72;5454213;26;21438;-47
2024/04/11 01:36:18;;;;;;;0.30;0.20;;;;;;;5.39;93.29;101775.81;5454152;26;20848;-47
2024/04/11 01:38:45;;;;;;;0.30;0.20;;;;;;;5.25;93.32;101779.97;5454195;26;21066;-47
2024/04/11 01:41:11;;;;;;;0.30;0.20;;;;;;;5.27;93.31;101784.41;5453749;26;20469;-47
2024/04/11 01:43:38;;;;;;;0.30;0.20;;;;;;;5.15;93.57;101781.53;5435137;26;21059;-47
2024/04/11 01:46:05;;;;;;;0.30;0.20;;;;;;;5.32;92.98;101776.56;5441946;26;20471;-47
2024/04/11 01:48:31;;;;;;;0.30;0.13;;;;;;;5.22;92.64;101779.91;5438995;26;20533;-47
2024/04/11 01:50:58;;;;;;;0.30;0.20;;;;;;;5.15;92.92;101775.38;5453784;26;20825;-48
2024/04/11 01:53:25;;;;;;;0.30;0.20;;;;;;;5.10;93.16;101764.78;5432119;26;20528;-47
2024/04/11 01:55:53;;;;;;;0.30;0.20;;;;;;;5.10;94.24;101763.88;5451083;26;20891;-47
2024/04/11 01:58:23;;;;;;;0.30;0.20;;;;;;;5.16;93.30;101756.06;5453917;26;20587;-47
2024/04/11 02:00:49;;;;;;;0.30;0.20;;;;;;;4.98;93.84;101754.00;5453707;26;20465;-47
2024/04/11 02:03:16;;;;;;;0.30;0.20;;;;;;;5.18;94.49;101749.06;5453695;26;20473;-47
2024/04/11 02:05:43;;;;;;;0.30;0.20;;;;;;;5.16;93.55;101750.81;5453491;26;20478;-47
2024/04/11 02:08:10;;;;;;;0.30;0.20;;;;;;;5.30;93.17;101759.81;5453984;26;21022;-47
2024/04/11 02:10:39;;;;;;;0.30;0.10;;;;;;;5.30;93.25;101767.72;5453489;26;20522;-47
2024/04/11 02:13:08;;;;;;;0.30;0.20;;;;;;;5.34;93.19;101778.38;5429742;26;20592;-49
2024/04/11 02:15:35;;;;;;;0.30;0.17;;;;;;;5.67;92.93;101773.63;5453631;26;20477;-46
2024/04/11 02:18:02;;;;;;;0.30;0.20;;;;;;;5.79;91.66;101782.59;5475866;26;20483;-47
2024/04/11 02:20:32;;;;;;;0.30;0.20;;;;;;;6.48;90.26;101780.94;5453213;26;21062;-47
2024/04/11 02:22:59;;;;;;;0.30;0.20;;;;;;;5.96;89.35;101788.16;5451430;26;20605;-48
2024/04/11 02:25:26;;;;;;;0.30;0.10;;;;;;;5.86;91.89;101796.75;5453171;26;20470;-47
2024/04/11 02:27:53;;;;;;;0.30;0.20;;;;;;;5.96;90.94;101808.38;5453028;26;20582;-47
2024/04/11 02:30:19;;;;;;;0.30;0.20;;;;;;;5.95;91.27;101810.13;5453135;26;20859;-47
2024/04/11 02:32:46;;;;;;;0.30;0.20;;;;;;;5.51;91.55;101815.56;5452984;26;20469;-46
2024/04/11 02:35:14;;;;;;;0.30;0.20;;;;;;;5.41;92.47;101815.38;5453342;26;20473;-47
2024/04/11 02:37:40;;;;;;;0.30;0.20;;;;;;;5.26;91.98;101816.00;5453166;26;20469;-46
2024/04/11 02:40:07;;;;;;;0.30;0.20;;;;;;;5.29;92.00;101811.66;5453234;26;20470;-47
2024/04/11 02:42:37;;;;;;;0.30;0.20;;;;;;;5.03;92.42;101805.94;5449094;26;20474;-47
2024/04/11 02:45:07;;;;;;;0.30;0.20;;;;;;;5.01;93.20;101809.41;5435099;26;20857;-46
2024/04/11 02:47:38;;;;;;;0.30;0.20;;;;;;;4.96;93.42;101813.72;5429191;26;20540;-47
2024/04/11 02:50:06;;;;;;;0.30;0.10;;;;;;;5.00;92.61;101819.03;5453393;26;20915;-46
2024/04/11 02:52:34;;;;;;;0.30;0.20;;;;;;;4.82;92.65;101823.09;5444894;26;20594;-47
2024/04/11 02:55:00;;;;;;;0.30;0.20;;;;;;;4.98;93.95;101826.03;5437710;26;20576;-47
2024/04/11 02:57:29;;;;;;;0.30;0.20;;;;;;;4.73;94.35;101821.16;5452989;26;20813;-47
2024/04/11 02:59:57;;;;;;;0.30;0.20;;;;;;;4.83;94.66;101823.13;5452896;26;20520;-46
2024/04/11 03:02:28;;;;;;;0.30;0.20;;;;;;;4.83;94.28;101828.38;5452880;26;20925;-47
2024/04/11 03:04:56;;;;;;;0.30;0.20;;;;;;;4.73;93.59;101826.41;5451420;26;20529;-46
2024/04/11 03:07:23;;;;;;;0.30;0.20;;;;;;;4.54;93.59;101819.00;5416979;26;20531;-47
2024/04/11 03:09:53;;;;;;;0.30;0.20;;;;;;;4.57;93.85;101826.97;5440771;26;20534;-47
2024/04/11 03:12:20;;;;;;;0.30;0.20;;;;;;;4.63;93.72;101832.34;5423997;26;20531;-47
2024/04/11 03:14:48;;;;;;;0.30;0.20;;;;;;;4.44;94.02;101831.97;5441945;26;20989;-46
2024/04/11 03:17:15;;;;;;;0.30;0.20;;;;;;;4.54;93.87;101837.44;5464943;26;20488;-47
2024/04/11 03:19:41;;;;;;;0.30;0.20;;;;;;;4.51;94.38;101843.50;5462741;26;20473;-46
2024/04/11 03:22:08;;;;;;;0.30;0.20;;;;;;;4.41;95.06;101852.09;5452812;26;20530;-46
2024/04/11 03:24:35;;;;;;;0.30;0.20;;;;;;;4.55;94.71;101847.13;5452537;26;20530;-47
2024/04/11 03:27:02;;;;;;;0.30;0.20;;;;;;;4.46;94.07;101839.91;5452749;26;21061;-46
2024/04/11 03:29:29;;;;;;;0.30;0.20;;;;;;;4.55;93.18;101845.38;5452496;26;20493;-46
2024/04/11 03:31:56;;;;;;;0.30;0.20;;;;;;;4.50;93.42;101836.47;5452878;26;20473;-47
2024/04/11 03:34:23;;;;;;;0.30;0.20;;;;;;;4.39;94.79;101856.44;5454983;26;20473;-46
2024/04/11 03:36:50;;;;;;;0.30;0.20;;;;;;;4.28;95.02;101850.94;5456167;26;20510;-47
2024/04/11 03:39:16;;;;;;;0.30;0.20;;;;;;;4.42;95.21;101857.38;5456209;26;20474;-47
2024/04/11 03:41:45;;;;;;;0.30;0.20;;;;;;;4.34;94.67;101848.41;5456246;26;20461;-47
2024/04/11 03:44:11;;;;;;;0.30;0.20;;;;;;;4.30;94.84;101849.22;5432953;26;20479;-46
2024/04/11 03:46:38;;;;;;;0.40;0.20;;;;;;;4.24;95.31;101859.59;5439140;26;20589;-46
2024/04/11 03:49:06;;;;;;;0.30;0.20;;;;;;;4.33;95.16;101853.66;5448948;26;20529;-47
2024/04/11 03:51:44;;;;;;;0.30;0.10;;;;;;;4.20;94.76;101859.50;5456109;26;20526;-46
2024/04/11 03:54:11;;;;;;;0.30;0.20;;;;;;;4.19;94.80;101855.97;5431980;26;20480;-45
2024/04/11 03:56:38;;;;;;;0.30;0.10;;;;;;;4.23;94.25;101860.44;5456221;26;20537;-46
2024/04/11 03:59:06;;;;;;;0.30;0.20;;;;;;;4.07;93.84;101853.06;5455913;26;21144;-46
2024/04/11 04:01:33;;;;;;;0.30;0.20;;;;;;;4.18;95.55;101855.94;5456064;26;20474;-46
2024/04/11 04:04:04;;;;;;;0.30;0.20;;;;;;;3.99;94.52;101850.28;5455965;26;20534;-46
2024/04/11 04:06:34;;;;;;;0.30;0.20;;;;;;;3.98;93.73;101868.66;5455978;26;20478;-47
2024/04/11 04:09:09;;;;;;;0.30;0.20;;;;;;;4.01;93.94;101860.81;5455968;26;20478;-46
2024/04/11 04:11:37;;;;;;;0.30;0.20;;;;;;;4.02;95.06;101855.59;5454179;26;20517;-46
2024/04/11 04:14:13;;;;;;;0.30;0.10;;;;;;;4.12;94.25;101849.69;5434339;26;20530;-46
2024/04/11 04:16:41;;;;;;;0.30;0.20;;;;;;;4.22;93.34;101865.69;5459383;26;20572;-47
2024/04/11 04:19:09;;;;;;;0.30;0.20;;;;;;;4.12;92.84;101860.22;5475474;26;20542;-47
2024/04/11 04:21:36;;;;;;;0.30;0.13;;;;;;;4.13;93.54;101872.53;5455786;26;20533;-46
2024/04/11 04:24:05;;;;;;;0.30;0.13;;;;;;;4.29;93.05;101875.50;5455848;26;20474;-46
2024/04/11 04:26:33;;;;;;;0.30;0.10;;;;;;;4.21;92.90;101875.31;5455562;26;21016;-48
2024/04/11 04:29:00;;;;;;;0.30;0.20;;;;;;;4.18;93.21;101867.34;5456239;26;20477;-46
2024/04/11 04:31:29;;;;;;;0.30;0.20;;;;;;;4.19;93.38;101870.88;5456062;26;20469;-47
2024/04/11 04:33:58;;;;;;;0.30;0.20;;;;;;;4.29;93.55;101870.25;5455946;26;20485;-46
2024/04/11 04:36:27;;;;;;;0.30;0.17;;;;;;;3.97;93.11;101880.88;5455786;26;20537;-46
2024/04/11 04:38:56;;;;;;;0.30;0.13;;;;;;;4.11;94.05;101875.94;5458373;26;20473;-47
2024/04/11 04:41:26;;;;;;;0.30;0.10;;;;;;;4.06;93.75;101882.84;5457457;26;20474;-46
2024/04/11 04:43:54;;;;;;;0.30;0.20;;;;;;;3.87;93.99;101876.28;5434411;26;21080;-47
2024/04/11 04:46:26;;;;;;;0.30;0.20;;;;;;;3.85;95.53;101889.41;5419654;26;20475;-46
2024/04/11 04:48:52;;;;;;;0.30;0.20;;;;;;;3.88;95.39;101885.94;5446467;26;20553;-46
2024/04/11 04:51:19;;;;;;;0.30;0.10;;;;;;;3.89;95.92;101886.84;5456405;26;20551;-47
2024/04/11 04:53:51;;;;;;;0.30;0.20;;;;;;;3.94;95.49;101887.81;5432330;26;20831;-47
2024/04/11 04:56:22;;;;;;;0.30;0.10;;;;;;;4.01;95.00;101895.03;5456564;26;20473;-46
2024/04/11 04:58:51;;;;;;;0.30;0.10;;;;;;;4.07;94.80;101897.78;5456289;26;20481;-47
2024/04/11 05:01:20;;;;;;;0.30;0.20;;;;;;;4.01;94.51;101887.13;5456518;26;20465;-46
2024/04/11 05:03:48;;;;;;;0.30;0.20;;;;;;;4.15;94.17;101881.34;5455706;26;20477;-46
2024/04/11 05:06:16;;;;;;;0.30;0.20;;;;;;;4.29;94.27;101891.28;5455895;26;20897;-47
2024/04/11 05:08:46;;;;;;;0.30;0.10;;;;;;;4.34;93.67;101901.06;5456198;26;20572;-46
2024/04/11 05:11:14;;;;;;;0.30;0.20;;;;;;;4.42;93.21;101904.78;5456545;26;20470;-46
2024/04/11 05:13:43;;;;;;;0.30;0.10;;;;;;;4.65;92.26;101897.34;5432100;26;20586;-47
2024/04/11 05:16:18;;;;;;;0.30;0.20;;;;;;;4.96;92.72;101898.91;5456093;26;21013;-47
2024/04/11 05:18:49;;;;;;;0.30;0.20;;;;;;;5.39;91.44;101904.13;5479308;26;20481;-46
2024/04/11 05:21:19;;;;;;;0.30;0.20;;;;;;;5.83;89.88;101907.53;5456077;26;20477;-46
2024/04/11 05:23:46;;;;;;;0.30;0.20;;;;;;;6.17;87.66;101916.94;5456044;26;20527;-46
2024/04/11 05:26:15;;;;;;;0.30;0.20;;;;;;;6.66;86.85;101922.94;5454650;26;20493;-46
2024/04/11 05:28:46;;;;;;;0.30;0.20;;;;;;;7.18;83.83;101918.31;5456268;26;20893;-47
2024/04/11 05:31:17;;;;;;;0.30;0.20;;;;;;;7.53;82.51;101916.03;5456252;26;20473;-46
2024/04/11 05:33:45;;;;;;;0.30;0.20;;;;;;;7.40;81.89;101921.22;5456501;26;20538;-46
2024/04/11 05:36:17;;;;;;;0.30;0.10;;;;;;;7.57;81.97;101916.09;5456562;26;20569;-47
2024/04/11 05:38:46;;;;;;;0.30;0.20;;;;;;;7.65;80.94;101921.44;5456938;26;20529;-47
2024/04/11 05:41:14;;;;;;;0.30;0.20;;;;;;;8.02;79.28;101927.97;5456051;26;20474;-46
2024/04/11 05:43:49;;;;;;;0.30;0.20;;;;;;;8.10;79.73;101926.28;5435715;26;20471;-47
2024/04/11 05:46:19;;;;;;;10.10;9.20;;;;;;;8.62;78.62;101926.63;5445072;26;20539;-47
2024/04/11 05:48:49;;;;;;;0.30;0.20;;;;;;;8.73;76.67;101929.34;5446019;26;20530;-47
2024/04/11 05:51:17;;;;;;;0.30;0.20;;;;;;;8.86;75.73;101928.53;5457692;26;20482;-47
2024/04/11 05:53:45;;;;;;;2.23;2.07;;;;;;;8.99;75.82;101927.72;5434060;26;20475;-49
2024/04/11 05:56:14;;;;;;;0.30;0.20;;;;;;;8.88;76.72;101927.66;5464519;26;20552;-47
2024/04/11 05:58:43;;;;;;;0.30;0.20;;;;;;;8.54;78.27;101926.63;5466854;26;20485;-47
2024/04/11 06:01:13;;;;;;;0.30;0.20;;;;;;;8.57;79.68;101933.69;5468912;26;20470;-47
2024/04/11 06:03:46;;;;;;;0.30;0.20;;;;;;;8.42;80.74;101928.28;5469297;26;20494;-47
2024/04/11 06:06:14;;;;;;;0.30;0.20;;;;;;;8.36;81.99;101930.88;5469053;26;20520;-49
2024/04/11 06:08:42;;;;;;;0.30;0.20;;;;;;;8.24;82.29;101924.63;5467866;26;20465;-47
2024/04/11 06:11:12;;;;;;;0.30;0.20;;;;;;;8.27;83.53;101921.09;5464579;26;20541;-47
2024/04/11 06:13:39;;;;;;;0.30;0.20;;;;;;;8.28;83.33;101923.75;5435533;26;20462;-47
2024/04/11 06:16:06;;;;;;;0.30;0.20;;;;;;;8.24;83.81;101931.69;5463352;26;20536;-47
2024/04/11 06:18:35;;;;;;;0.30;0.20;;;;;;;8.41;83.11;101924.75;5485668;26;20563;-47
2024/04/11 06:21:04;;;;;;;0.30;0.20;;;;;;;8.33;84.19;101916.72;5455470;26;20541;-46
2024/04/11 06:23:32;;;;;;;0.30;0.20;;;;;;;8.85;84.34;101911.75;5453171;26;20836;-47
2024/04/11 06:25:59;;;;;;;0.30;0.20;;;;;;;8.94;83.50;101908.28;5453000;26;20892;-47
2024/04/11 06:28:25;;;;;;;0.30;0.20;;;;;;;8.63;83.12;101914.28;5452887;26;20824;-47
2024/04/11 06:30:52;;;;;;;0.30;0.20;;;;;;;8.31;84.86;101912.28;5453181;26;20470;-47
2024/04/11 06:33:18;;;;;;;0.30;0.20;;;;;;;8.58;85.15;101909.84;5451365;26;20473;-46
2024/04/11 06:35:46;;;;;;;0.30;0.20;;;;;;;8.64;84.90;101909.00;5452954;26;20469;-46
2024/04/11 06:38:16;;;;;;;0.30;0.20;;;;;;;8.52;84.57;101909.81;5452806;26;20485;-47
2024/04/11 06:40:43;;;;;;;0.30;0.20;;;;;;;8.64;85.11;101910.78;5452879;26;20469;-47
2024/04/11 06:43:13;;;;;;;0.30;0.20;;;;;;;8.92;84.02;101902.06;5437519;26;20475;-46
2024/04/11 06:45:40;;;;;;;0.30;0.20;;;;;;;8.60;83.93;101917.78;5440941;26;20872;-46
2024/04/11 06:48:08;;;;;;;0.30;0.20;;;;;;;8.74;84.37;101907.28;5431160;26;20809;-48
2024/04/11 06:50:36;;;;;;;0.30;0.20;;;;;;;8.87;84.11;101904.69;5452773;26;20512;-47
2024/04/11 06:53:06;;;;;;;0.30;0.20;;;;;;;8.88;82.60;101902.91;5437832;26;20574;-45
2024/04/11 06:55:34;;;;;;;0.30;0.20;;;;;;;8.77;82.40;101891.38;5444849;26;20497;-47
2024/04/11 06:58:02;;;;;;;0.30;0.20;;;;;;;8.77;82.70;101894.03;5452730;26;20478;-46
2024/04/11 07:00:36;;;;;;;0.30;0.20;;;;;;;8.66;84.15;101893.13;5452454;26;20493;-46
2024/04/11 07:03:13;;;;;;;0.30;0.20;;;;;;;8.91;84.19;101895.00;5452639;26;20553;-47
2024/04/11 07:05:57;;;;;;;0.30;0.20;;;;;;;9.10;82.81;101898.59;5452341;26;20545;-46
2024/04/11 07:08:29;;;;;;;0.30;0.20;;;;;;;9.15;82.26;101908.31;5451317;26;20954;-46
2024/04/11 07:10:58;;;;;;;0.30;0.20;;;;;;;9.62;81.11;101904.03;5452402;26;20481;-47
2024/04/11 07:13:27;;;;;;;0.30;0.20;;;;;;;9.42;81.73;101904.88;5419605;26;20483;-48
2024/04/11 07:15:58;;;;;;;0.30;0.20;;;;;;;9.84;81.29;101907.56;5452115;26;20840;-48
2024/04/11 07:18:36;;;;;;;0.30;0.20;;;;;;;10.17;80.15;101910.25;5475300;26;20465;-46
2024/04/11 07:21:07;;;;;;;0.30;0.20;;;;;;;9.98;79.35;101924.41;5452164;26;20469;-46
2024/04/11 07:23:34;;;;;;;0.30;0.20;;;;;;;10.10;81.06;101924.41;5451786;26;20586;-46
2024/04/11 07:26:01;;;;;;;0.30;0.20;;;;;;;10.03;79.12;101927.97;5452354;26;20477;-46
2024/04/11 07:28:28;;;;;;;0.30;0.20;;;;;;;10.34;76.75;101921.78;5451993;26;20843;-47
2024/04/11 07:30:54;;;;;;;0.30;0.20;;;;;;;10.21;78.66;101914.69;5452102;26;20466;-47
2024/04/11 07:37:09;;;;;;;0.30;0.20;;;;;;;10.57;81.34;101921.75;5454405;26;20568;-46
2024/04/11 07:39:36;;;;;;;0.30;0.20;;;;;;;10.94;79.59;101926.94;5450128;26;20581;-46
2024/04/11 07:42:47;;;;;;;0.30;0.20;;;;;;;10.92;78.22;101926.94;5451669;26;20528;-46
2024/04/11 07:45:07;;;;;;;0.30;0.20;;;;;;;10.95;77.21;101929.56;5434133;26;20473;-47
2024/04/11 07:47:47;;;;;;;0.30;0.20;;;;;;;11.36;76.34;101935.59;5425668;26;20657;-47
2024/04/11 07:50:26;;;;;;;0.30;0.20;;;;;;;10.84;78.51;101936.75;5451470;26;20470;-47
2024/04/11 07:52:52;;;;;;;0.30;0.20;;;;;;;10.93;78.75;101934.03;5438674;26;20535;-49
2024/04/11 07:55:22;;;;;;;0.30;0.20;;;;;;;11.42;77.11;101940.91;5440694;26;20469;-49
2024/04/11 07:57:50;;;;;;;0.43;0.43;;;;;;;11.92;74.69;101943.28;5451508;26;20470;-49
2024/04/11 08:00:27;;;;;;;0.30;0.20;;;;;;;11.87;72.67;101939.75;5451360;26;21002;-49
2024/04/11 08:02:57;;;;;;;0.30;0.20;;;;;;;12.02;71.71;101939.66;5451432;26;20537;-49
2024/04/11 08:05:25;;;;;;;0.30;0.20;;;;;;;11.92;71.19;101951.25;5451044;26;20591;-49
2024/04/11 08:07:52;;;;;;;0.30;0.20;;;;;;;12.12;71.35;101951.13;5451476;26;20482;-49
2024/04/11 08:10:20;;;;;;;0.30;0.20;;;;;;;12.59;71.01;101945.34;5450885;26;20522;-49
2024/04/11 08:12:47;;;;;;;0.30;0.20;;;;;;;12.55;68.92;101940.94;5432066;26;20528;-49
2024/04/11 08:15:16;;;;;;;0.30;0.20;;;;;;;12.67;69.58;101955.94;5446226;26;20473;-49
2024/04/11 08:17:43;;;;;;;0.30;0.20;;;;;;;12.36;68.52;101969.59;5470018;26;20484;-49
2024/04/11 08:20:12;;;;;;;0.30;0.20;;;;;;;12.55;69.95;101964.94;5457185;26;20518;-49
2024/04/11 08:22:41;;;;;;;0.30;0.20;;;;;;;12.57;69.91;101970.28;5454782;26;20469;-49
2024/04/11 08:25:14;;;;;;;0.30;0.20;;;;;;;12.56;69.55;101965.84;5454529;26;20522;-49
2024/04/11 08:27:43;;;;;;;0.30;0.20;;;;;;;12.90;70.55;101966.38;5454848;26;20514;-49
2024/04/11 08:30:11;;;;;;;0.30;0.20;;;;;;;13.63;67.53;101966.34;5454668;26;20521;-49
2024/04/11 08:32:45;;;;;;;0.30;0.20;;;;;;;13.59;66.29;101963.75;5454771;26;20473;-49
2024/04/11 08:35:18;;;;;;;0.30;0.20;;;;;;;13.59;65.50;101959.31;5454639;26;20525;-49
2024/04/11 08:37:51;;;;;;;0.30;0.20;;;;;;;13.39;65.89;101961.34;5454499;26;20530;-49
2024/04/11 08:40:19;;;;;;;0.30;0.20;;;;;;;13.77;64.81;101963.47;5454761;26;20470;-49
2024/04/11 08:42:50;;;;;;;0.30;0.20;;;;;;;14.28;63.62;101954.66;5447917;26;20510;-49
2024/04/11 08:45:17;;;;;;;0.30;0.20;;;;;;;14.13;63.11;101954.03;5439049;26;20461;-49
2024/04/11 08:47:46;;;;;;;0.30;0.20;;;;;;;14.39;62.17;101947.31;5430106;26;20473;-49
2024/04/11 08:50:13;;;;;;;0.30;0.20;;;;;;;14.56;61.06;101949.75;5454469;26;20873;-49
2024/04/11 08:52:45;;;;;;;0.40;0.20;;;;;;;14.90;61.26;101955.31;5444331;26;20520;-49
2024/04/11 08:55:15;;;;;;;0.30;0.20;;;;;;;15.16;58.82;101957.47;5442062;26;21077;-50
2024/04/11 08:57:42;;;;;;;0.40;0.20;;;;;;;15.44;56.86;101969.38;5454693;26;20474;-49
2024/04/11 09:00:12;;;;;;;0.40;0.20;;;;;;;15.68;57.35;101965.31;5454458;26;20833;-49
2024/04/11 09:02:41;;;;;;;0.40;0.20;;;;;;;16.23;55.27;101959.50;5454434;26;20521;-49
2024/04/11 09:05:10;;;;;;;0.40;0.20;;;;;;;16.53;50.62;101956.94;5454177;26;20586;-49
2024/04/11 09:07:39;;;;;;;0.40;0.20;;;;;;;16.37;49.98;101963.63;5454479;26;20586;-49
2024/04/11 09:10:07;;;;;;;0.40;0.20;;;;;;;16.39;49.41;101957.31;5454175;26;20474;-49
2024/04/11 09:12:33;;;;;;;0.33;0.20;;;;;;;16.22;50.35;101963.13;5437947;26;20813;-49
2024/04/11 09:15:07;;;;;;;0.40;0.20;;;;;;;16.45;48.77;101957.16;5446544;26;20470;-49
2024/04/11 09:17:38;;;;;;;0.40;0.20;;;;;;;16.90;48.96;101959.56;5471130;26;21118;-49
2024/04/11 09:20:06;;;;;;;0.40;0.20;;;;;;;17.08;47.45;101960.84;5458328;26;20587;-49
2024/04/11 09:22:33;;;;;;;0.40;0.20;;;;;;;17.14;47.83;101955.31;5454247;26;20474;-49
2024/04/11 09:25:03;;;;;;;0.40;0.20;;;;;;;17.14;46.89;101955.31;5453763;26;20450;-49
2024/04/11 09:27:30;;;;;;;0.40;0.20;;;;;;;16.68;46.56;101956.56;5453992;26;20473;-49
2024/04/11 09:29:57;;;;;;;0.50;0.30;;;;;;;16.80;46.72;101953.56;5453827;26;20474;-49
2024/04/11 09:32:25;;;;;;;0.40;0.20;;;;;;;17.16;47.39;101950.75;5453381;26;20890;-49
2024/04/11 09:34:53;;;;;;;0.40;0.20;;;;;;;17.35;47.56;101953.78;5453506;26;20470;-49
2024/04/11 09:37:23;;;;;;;0.40;0.20;;;;;;;17.20;48.02;101943.47;5453707;26;20556;-49
2024/04/11 09:39:56;;;;;;;0.40;0.20;;;;;;;17.18;47.31;101946.22;5453800;26;20523;-50
2024/04/11 09:42:27;;;;;;;0.40;0.20;;;;;;;17.28;47.33;101942.34;5451944;26;20545;-49
2024/04/11 09:44:55;;;;;;;0.40;0.20;;;;;;;17.05;47.13;101944.81;5432686;26;20470;-50
2024/04/11 09:47:26;;;;;;;0.40;0.20;;;;;;;17.05;46.21;101945.69;5429449;26;20487;-50
2024/04/11 09:49:59;;;;;;;0.40;0.20;;;;;;;17.09;45.90;101946.47;5453554;26;20470;-49
2024/04/11 09:52:30;;;;;;;0.40;0.20;;;;;;;17.29;45.86;101948.59;5447091;26;20491;-50
2024/04/11 09:55:02;;;;;;;0.40;0.20;;;;;;;17.15;45.63;101940.94;5437595;26;20522;-50
2024/04/11 09:57:31;;;;;;;0.40;0.20;;;;;;;17.47;45.20;101943.53;5453412;26;20831;-49
2024/04/11 09:59:57;;;;;;;0.40;0.20;;;;;;;17.57;43.58;101933.38;5453466;26;20530;-50
2024/04/11 10:02:28;;;;;;;0.40;0.20;;;;;;;17.72;43.75;101941.00;5453520;26;20565;-49
2024/04/11 10:05:04;;;;;;;0.40;0.30;;;;;;;17.90;43.04;101947.59;5453374;26;21192;-49
2024/04/11 10:07:41;;;;;;;0.40;0.20;;;;;;;18.10;41.09;101946.94;5453377;26;20477;-50
2024/04/11 10:10:25;;;;;;;0.40;0.20;;;;;;;18.09;39.72;101946.97;5453091;26;20842;-50
2024/04/11 10:12:52;;;;;;;0.40;0.20;;;;;;;18.33;41.37;101951.53;5433122;26;20483;-50
2024/04/11 10:15:21;;;;;;;0.40;0.20;;;;;;;18.01;40.64;101949.94;5449866;26;21066;-49
2024/04/11 10:18:08;;;;;;;0.40;0.20;;;;;;;18.50;40.19;101954.56;5473529;26;20981;-50
2024/04/11 10:20:39;;;;;;;0.40;0.20;;;;;;;18.59;40.20;101956.91;5453060;26;20529;-49
2024/04/11 10:23:09;;;;;;;0.40;0.20;;;;;;;18.35;39.87;101961.31;5451303;26;20473;-49
2024/04/11 10:25:38;;;;;;;0.40;0.30;;;;;;;18.26;40.14;101950.88;5453206;26;20530;-49
2024/04/11 10:28:20;;;;;;;0.40;0.20;;;;;;;18.19;39.91;101961.88;5453057;26;20485;-49
2024/04/11 10:30:50;;;;;;;0.40;0.20;;;;;;;18.48;39.74;101960.91;5453245;26;20561;-50
2024/04/11 10:33:29;;;;;;;0.40;0.20;;;;;;;18.70;40.56;101953.88;5451083;26;20581;-49
2024/04/11 10:35:56;;;;;;;0.40;0.20;;;;;;;18.89;37.79;101959.47;5453259;26;20529;-49
2024/04/11 10:38:27;;;;;;;0.40;0.20;;;;;;;18.64;38.69;101948.72;5453323;26;20478;-50
2024/04/11 10:40:56;;;;;;;0.40;0.20;;;;;;;18.40;39.70;101955.78;5452932;26;20470;-49
2024/04/11 10:43:27;;;;;;;0.40;0.20;;;;;;;18.76;39.68;101953.63;5434317;26;20551;-49
2024/04/11 10:45:56;;;;;;;0.40;0.20;;;;;;;18.96;38.91;101952.94;5441640;26;21011;-49
2024/04/11 10:48:25;;;;;;;0.40;0.20;;;;;;;19.00;39.06;101953.69;5434993;26;20481;-50
2024/04/11 10:50:52;;;;;;;0.40;0.20;;;;;;;18.88;39.82;101957.72;5452847;26;20525;-49
2024/04/11 10:53:20;;;;;;;0.40;0.20;;;;;;;18.85;39.43;101952.44;5433740;26;21018;-49
2024/04/11 10:55:48;;;;;;;0.40;0.20;;;;;;;18.90;39.34;101953.13;5449139;26;20486;-49
2024/04/11 10:58:22;;;;;;;0.40;0.20;;;;;;;18.88;40.25;101955.88;5452605;26;20478;-49
2024/04/11 11:01:07;;;;;;;0.40;0.20;;;;;;;18.49;39.63;101951.88;5452704;26;20518;-49
2024/04/11 11:06:24;;;;;;;0.40;0.20;;;;;;;19.00;39.68;101951.00;5452597;26;20586;-49
2024/04/11 11:08:59;;;;;;;0.40;0.20;;;;;;;18.85;39.93;101947.94;5452361;26;20551;-49
2024/04/11 11:11:27;;;;;;;0.40;0.20;;;;;;;18.97;41.34;101938.50;5452058;26;20529;-49
2024/04/11 11:13:55;;;;;;;0.40;0.20;;;;;;;19.11;41.42;101941.56;5428273;26;20474;-49
2024/04/11 11:16:25;;;;;;;0.40;0.20;;;;;;;18.66;40.75;101944.16;5452084;26;20546;-49
2024/04/11 11:18:52;;;;;;;0.40;0.20;;;;;;;19.06;41.27;101942.69;5437672;26;20531;-49
2024/04/11 11:21:22;;;;;;;0.40;0.20;;;;;;;19.26;40.48;101950.03;5452131;26;20518;-49
2024/04/11 11:23:59;;;;;;;0.40;0.20;;;;;;;18.99;39.82;101949.25;5452235;26;20826;-49
2024/04/11 11:26:35;;;;;;;0.40;0.20;;;;;;;18.75;39.47;101934.84;5452222;26;21100;-49
2024/04/11 11:29:09;;;;;;;0.40;0.20;;;;;;;18.51;40.34;101934.75;5452323;26;20480;-49
2024/04/11 11:31:40;;;;;;;0.40;0.20;;;;;;;18.26;40.01;101926.66;5451997;26;20541;-49
2024/04/11 11:34:11;;;;;;;0.40;0.20;;;;;;;18.54;40.75;101933.78;5452168;26;20842;-49
2024/04/11 11:36:45;;;;;;;0.40;0.20;;;;;;;18.67;39.98;101926.16;5452018;26;20521;-49
2024/04/11 11:39:25;;;;;;;0.40;0.20;;;;;;;18.97;41.21;101927.75;5451960;26;20470;-49
2024/04/11 11:47:45;;;;;;;0.40;0.20;;;;;;;18.80;40.00;101922.09;5412524;26;20479;-49
2024/04/11 11:50:21;;;;;;;0.40;0.20;;;;;;;18.92;40.28;101914.44;5444934;26;20477;-49